sensor_id;sensor_type;location;lat;lon;timestamp;temperature;humidity
84053;DHT22;74140;44.988;4.976;2023-11-18T00:00:22;6.80;71.00
84053;DHT22;74140;44.988;4.976;2023-11-18T00:02:48;6.80;71.30
84053;DHT22;74140;44.988;4.976;2023-11-18T00:05:13;6.90;71.30
84053;DHT22;74140;44.988;4.976;2023-11-18T00:07:39;6.80;71.30
84053;DHT22;74140;44.988;4.976;2023-11-18T00:10:05;6.90;71.30
84053;DHT22;74140;44.988;4.976;2023-11-18T00:12:32;6.90;70.90
84053;DHT22;74140;44.988;4.976;2023-11-18T00:15:01;7.00;70.90
84053;DHT22;74140;44.988;4.976;2023-11-18T00:17:32;7.00;70.90
84053;DHT22;74140;44.988;4.976;2023-11-18T00:19:57;6.90;70.90
84053;DHT22;74140;44.988;4.976;2023-11-18T00:22:23;7.00;70.70
84053;DHT22;74140;44.988;4.976;2023-11-18T00:24:49;7.00;70.70
84053;DHT22;74140;44.988;4.976;2023-11-18T00:27:15;7.00;70.60
84053;DHT22;74140;44.988;4.976;2023-11-18T00:29:41;7.10;70.70
84053;DHT22;74140;44.988;4.976;2023-11-18T00:32:07;7.10;71.00
84053;DHT22;74140;44.988;4.976;2023-11-18T00:34:33;7.10;70.90
84053;DHT22;74140;44.988;4.976;2023-11-18T00:36:58;7.10;70.90
84053;DHT22;74140;44.988;4.976;2023-11-18T00:39:27;7.00;71.00
84053;DHT22;74140;44.988;4.976;2023-11-18T00:41:53;7.00;70.90
84053;DHT22;74140;44.988;4.976;2023-11-18T00:44:21;7.00;71.20
84053;DHT22;74140;44.988;4.976;2023-11-18T00:46:47;7.10;70.60
84053;DHT22;74140;44.988;4.976;2023-11-18T00:49:12;7.10;70.60
84053;DHT22;74140;44.988;4.976;2023-11-18T00:51:38;7.10;70.90
84053;DHT22;74140;44.988;4.976;2023-11-18T00:54:04;7.20;70.80
84053;DHT22;74140;44.988;4.976;2023-11-18T00:56:33;7.20;70.70
84053;DHT22;74140;44.988;4.976;2023-11-18T00:58:59;7.10;70.70
84053;DHT22;74140;44.988;4.976;2023-11-18T01:01:24;7.10;70.80
84053;DHT22;74140;44.988;4.976;2023-11-18T01:03:50;7.20;70.50
84053;DHT22;74140;44.988;4.976;2023-11-18T01:06:16;7.20;70.60
84053;DHT22;74140;44.988;4.976;2023-11-18T01:08:45;7.10;70.50
84053;DHT22;74140;44.988;4.976;2023-11-18T01:11:15;7.10;70.80
84053;DHT22;74140;44.988;4.976;2023-11-18T01:13:40;7.10;70.00
84053;DHT22;74140;44.988;4.976;2023-11-18T01:16:06;7.00;70.40
84053;DHT22;74140;44.988;4.976;2023-11-18T01:18:32;7.00;70.30
84053;DHT22;74140;44.988;4.976;2023-11-18T01:20:58;6.90;70.70
84053;DHT22;74140;44.988;4.976;2023-11-18T01:23:24;7.00;70.70
84053;DHT22;74140;44.988;4.976;2023-11-18T01:25:50;6.90;70.50
84053;DHT22;74140;44.988;4.976;2023-11-18T01:28:16;6.90;70.50
84053;DHT22;74140;44.988;4.976;2023-11-18T01:30:42;6.90;70.70
84053;DHT22;74140;44.988;4.976;2023-11-18T01:33:10;6.90;71.20
84053;DHT22;74140;44.988;4.976;2023-11-18T01:35:36;6.90;70.90
84053;DHT22;74140;44.988;4.976;2023-11-18T01:38:02;6.90;70.60
84053;DHT22;74140;44.988;4.976;2023-11-18T01:40:28;6.90;70.00
84053;DHT22;74140;44.988;4.976;2023-11-18T01:42:56;6.90;70.60
84053;DHT22;74140;44.988;4.976;2023-11-18T01:45:22;7.00;70.60
84053;DHT22;74140;44.988;4.976;2023-11-18T01:47:48;7.00;70.50
84053;DHT22;74140;44.988;4.976;2023-11-18T01:50:14;6.80;70.80
84053;DHT22;74140;44.988;4.976;2023-11-18T01:52:40;6.80;71.30
84053;DHT22;74140;44.988;4.976;2023-11-18T01:55:07;6.80;71.00
84053;DHT22;74140;44.988;4.976;2023-11-18T01:57:34;6.80;71.30
84053;DHT22;74140;44.988;4.976;2023-11-18T02:00:01;6.70;71.20
84053;DHT22;74140;44.988;4.976;2023-11-18T02:02:31;6.70;71.30
84053;DHT22;74140;44.988;4.976;2023-11-18T02:04:58;6.90;70.60
84053;DHT22;74140;44.988;4.976;2023-11-18T02:07:27;7.00;70.00
84053;DHT22;74140;44.988;4.976;2023-11-18T02:09:54;7.10;69.50
84053;DHT22;74140;44.988;4.976;2023-11-18T02:12:38;7.00;69.60
84053;DHT22;74140;44.988;4.976;2023-11-18T02:15:09;7.00;68.90
84053;DHT22;74140;44.988;4.976;2023-11-18T02:17:38;7.00;68.20
84053;DHT22;74140;44.988;4.976;2023-11-18T02:20:06;6.90;68.10
84053;DHT22;74140;44.988;4.976;2023-11-18T02:22:44;6.90;69.00
84053;DHT22;74140;44.988;4.976;2023-11-18T02:25:15;6.80;68.20
84053;DHT22;74140;44.988;4.976;2023-11-18T02:27:42;6.80;68.40
84053;DHT22;74140;44.988;4.976;2023-11-18T02:30:09;6.80;67.90
84053;DHT22;74140;44.988;4.976;2023-11-18T02:32:45;6.80;68.50
84053;DHT22;74140;44.988;4.976;2023-11-18T02:37:44;6.50;70.50
84053;DHT22;74140;44.988;4.976;2023-11-18T02:40:29;6.30;70.70
84053;DHT22;74140;44.988;4.976;2023-11-18T02:42:59;6.30;71.00
84053;DHT22;74140;44.988;4.976;2023-11-18T02:45:25;6.10;71.20
84053;DHT22;74140;44.988;4.976;2023-11-18T02:47:53;6.20;71.30
84053;DHT22;74140;44.988;4.976;2023-11-18T02:50:26;6.20;71.20
84053;DHT22;74140;44.988;4.976;2023-11-18T02:52:53;6.20;71.30
84053;DHT22;74140;44.988;4.976;2023-11-18T02:55:19;6.20;71.30
84053;DHT22;74140;44.988;4.976;2023-11-18T02:57:46;6.30;70.90
84053;DHT22;74140;44.988;4.976;2023-11-18T03:00:13;6.30;71.10
84053;DHT22;74140;44.988;4.976;2023-11-18T03:02:44;6.30;71.00
84053;DHT22;74140;44.988;4.976;2023-11-18T03:05:11;6.30;71.10
84053;DHT22;74140;44.988;4.976;2023-11-18T03:07:38;6.30;71.10
84053;DHT22;74140;44.988;4.976;2023-11-18T03:10:04;6.40;69.90
84053;DHT22;74140;44.988;4.976;2023-11-18T03:12:36;6.40;69.90
84053;DHT22;74140;44.988;4.976;2023-11-18T03:15:02;6.40;69.60
84053;DHT22;74140;44.988;4.976;2023-11-18T03:17:28;6.40;70.30
84053;DHT22;74140;44.988;4.976;2023-11-18T03:19:53;6.20;71.00
84053;DHT22;74140;44.988;4.976;2023-11-18T03:22:19;6.20;71.00
84053;DHT22;74140;44.988;4.976;2023-11-18T03:24:45;6.30;70.90
84053;DHT22;74140;44.988;4.976;2023-11-18T03:27:10;6.30;70.80
84053;DHT22;74140;44.988;4.976;2023-11-18T03:29:36;6.40;70.50
84053;DHT22;74140;44.988;4.976;2023-11-18T03:32:02;6.40;70.60
84053;DHT22;74140;44.988;4.976;2023-11-18T03:34:29;6.40;70.40
84053;DHT22;74140;44.988;4.976;2023-11-18T03:36:54;6.40;71.40
84053;DHT22;74140;44.988;4.976;2023-11-18T03:39:22;6.30;71.30
84053;DHT22;74140;44.988;4.976;2023-11-18T03:41:48;6.30;71.20
84053;DHT22;74140;44.988;4.976;2023-11-18T03:44:15;6.30;71.40
84053;DHT22;74140;44.988;4.976;2023-11-18T03:46:41;6.30;70.90
84053;DHT22;74140;44.988;4.976;2023-11-18T03:49:07;6.30;70.20
84053;DHT22;74140;44.988;4.976;2023-11-18T03:51:33;6.30;71.50
84053;DHT22;74140;44.988;4.976;2023-11-18T03:53:58;6.10;71.90
84053;DHT22;74140;44.988;4.976;2023-11-18T03:56:24;5.80;72.80
84053;DHT22;74140;44.988;4.976;2023-11-18T03:58:52;5.80;73.10
84053;DHT22;74140;44.988;4.976;2023-11-18T04:01:22;5.70;73.20
84053;DHT22;74140;44.988;4.976;2023-11-18T04:03:48;5.80;73.20
84053;DHT22;74140;44.988;4.976;2023-11-18T04:06:14;5.90;73.20
84053;DHT22;74140;44.988;4.976;2023-11-18T04:08:45;5.90;73.60
84053;DHT22;74140;44.988;4.976;2023-11-18T04:11:11;5.90;73.30
84053;DHT22;74140;44.988;4.976;2023-11-18T04:13:38;5.80;73.60
84053;DHT22;74140;44.988;4.976;2023-11-18T04:16:04;5.90;73.70
84053;DHT22;74140;44.988;4.976;2023-11-18T04:18:31;6.00;72.70
84053;DHT22;74140;44.988;4.976;2023-11-18T04:20:57;6.10;73.20
84053;DHT22;74140;44.988;4.976;2023-11-18T04:23:23;6.10;73.10
84053;DHT22;74140;44.988;4.976;2023-11-18T04:25:50;6.10;73.80
84053;DHT22;74140;44.988;4.976;2023-11-18T04:28:15;6.10;74.10
84053;DHT22;74140;44.988;4.976;2023-11-18T04:30:41;6.10;74.20
84053;DHT22;74140;44.988;4.976;2023-11-18T04:33:07;6.00;74.60
84053;DHT22;74140;44.988;4.976;2023-11-18T04:35:33;6.10;74.70
84053;DHT22;74140;44.988;4.976;2023-11-18T04:38:00;6.10;74.60
84053;DHT22;74140;44.988;4.976;2023-11-18T04:40:25;6.20;74.40
84053;DHT22;74140;44.988;4.976;2023-11-18T04:42:51;6.30;74.40
84053;DHT22;74140;44.988;4.976;2023-11-18T04:45:17;6.30;74.50
84053;DHT22;74140;44.988;4.976;2023-11-18T04:47:42;6.30;74.20
84053;DHT22;74140;44.988;4.976;2023-11-18T04:50:10;6.30;74.20
84053;DHT22;74140;44.988;4.976;2023-11-18T04:52:35;6.50;73.10
84053;DHT22;74140;44.988;4.976;2023-11-18T04:55:02;6.60;72.20
84053;DHT22;74140;44.988;4.976;2023-11-18T04:57:28;6.60;72.10
84053;DHT22;74140;44.988;4.976;2023-11-18T04:59:54;6.60;72.70
84053;DHT22;74140;44.988;4.976;2023-11-18T05:02:20;6.50;73.70
84053;DHT22;74140;44.988;4.976;2023-11-18T05:04:45;6.40;73.40
84053;DHT22;74140;44.988;4.976;2023-11-18T05:07:11;6.40;73.90
84053;DHT22;74140;44.988;4.976;2023-11-18T05:09:36;6.30;74.10
84053;DHT22;74140;44.988;4.976;2023-11-18T05:12:03;6.30;74.50
84053;DHT22;74140;44.988;4.976;2023-11-18T05:14:28;6.30;74.20
84053;DHT22;74140;44.988;4.976;2023-11-18T05:16:54;6.30;74.20
84053;DHT22;74140;44.988;4.976;2023-11-18T05:19:20;6.30;74.60
84053;DHT22;74140;44.988;4.976;2023-11-18T05:21:46;6.30;74.80
84053;DHT22;74140;44.988;4.976;2023-11-18T05:24:15;6.30;74.90
84053;DHT22;74140;44.988;4.976;2023-11-18T05:26:40;6.40;74.40
84053;DHT22;74140;44.988;4.976;2023-11-18T05:29:06;6.40;74.00
84053;DHT22;74140;44.988;4.976;2023-11-18T05:31:32;6.40;73.70
84053;DHT22;74140;44.988;4.976;2023-11-18T05:33:58;6.50;73.20
84053;DHT22;74140;44.988;4.976;2023-11-18T05:36:24;6.40;73.90
84053;DHT22;74140;44.988;4.976;2023-11-18T05:38:54;6.30;74.30
84053;DHT22;74140;44.988;4.976;2023-11-18T05:41:20;6.20;73.80
84053;DHT22;74140;44.988;4.976;2023-11-18T05:43:53;6.10;73.60
84053;DHT22;74140;44.988;4.976;2023-11-18T05:46:23;6.10;74.00
84053;DHT22;74140;44.988;4.976;2023-11-18T05:48:55;6.10;73.80
84053;DHT22;74140;44.988;4.976;2023-11-18T05:51:22;6.00;74.20
84053;DHT22;74140;44.988;4.976;2023-11-18T05:53:49;5.90;75.00
84053;DHT22;74140;44.988;4.976;2023-11-18T05:56:15;5.80;75.30
84053;DHT22;74140;44.988;4.976;2023-11-18T05:58:43;5.80;75.40
84053;DHT22;74140;44.988;4.976;2023-11-18T06:01:09;5.90;75.20
84053;DHT22;74140;44.988;4.976;2023-11-18T06:03:37;5.80;75.40
84053;DHT22;74140;44.988;4.976;2023-11-18T06:06:08;5.80;75.60
84053;DHT22;74140;44.988;4.976;2023-11-18T06:08:35;5.90;75.20
84053;DHT22;74140;44.988;4.976;2023-11-18T06:11:01;6.00;75.10
84053;DHT22;74140;44.988;4.976;2023-11-18T06:13:42;6.10;74.90
84053;DHT22;74140;44.988;4.976;2023-11-18T06:16:09;6.10;74.80
84053;DHT22;74140;44.988;4.976;2023-11-18T06:18:35;5.90;75.00
84053;DHT22;74140;44.988;4.976;2023-11-18T06:21:01;5.70;75.50
84053;DHT22;74140;44.988;4.976;2023-11-18T06:23:27;5.70;75.50
84053;DHT22;74140;44.988;4.976;2023-11-18T06:25:52;5.90;74.70
84053;DHT22;74140;44.988;4.976;2023-11-18T06:28:18;6.20;73.40
84053;DHT22;74140;44.988;4.976;2023-11-18T06:30:44;6.30;73.20
84053;DHT22;74140;44.988;4.976;2023-11-18T06:33:09;6.40;73.10
84053;DHT22;74140;44.988;4.976;2023-11-18T06:35:37;6.40;72.00
84053;DHT22;74140;44.988;4.976;2023-11-18T06:38:02;6.40;72.60
84053;DHT22;74140;44.988;4.976;2023-11-18T06:40:28;6.20;73.10
84053;DHT22;74140;44.988;4.976;2023-11-18T06:42:54;6.10;73.60
84053;DHT22;74140;44.988;4.976;2023-11-18T06:45:27;5.90;74.10
84053;DHT22;74140;44.988;4.976;2023-11-18T06:47:52;5.80;74.40
84053;DHT22;74140;44.988;4.976;2023-11-18T06:50:19;5.80;74.60
84053;DHT22;74140;44.988;4.976;2023-11-18T06:52:50;5.90;74.40
84053;DHT22;74140;44.988;4.976;2023-11-18T06:55:17;6.00;74.20
84053;DHT22;74140;44.988;4.976;2023-11-18T06:57:42;6.30;74.00
84053;DHT22;74140;44.988;4.976;2023-11-18T07:00:10;6.50;73.10
84053;DHT22;74140;44.988;4.976;2023-11-18T07:02:36;6.80;72.60
84053;DHT22;74140;44.988;4.976;2023-11-18T07:05:02;7.00;71.70
84053;DHT22;74140;44.988;4.976;2023-11-18T07:07:27;7.20;71.60
84053;DHT22;74140;44.988;4.976;2023-11-18T07:09:53;7.50;71.60
84053;DHT22;74140;44.988;4.976;2023-11-18T07:12:19;7.90;73.30
84053;DHT22;74140;44.988;4.976;2023-11-18T07:14:48;8.40;74.70
84053;DHT22;74140;44.988;4.976;2023-11-18T07:17:14;8.90;74.50
84053;DHT22;74140;44.988;4.976;2023-11-18T07:19:40;9.70;76.50
84053;DHT22;74140;44.988;4.976;2023-11-18T07:22:06;10.60;74.30
84053;DHT22;74140;44.988;4.976;2023-11-18T07:24:32;11.10;71.80
84053;DHT22;74140;44.988;4.976;2023-11-18T07:26:58;11.60;72.90
84053;DHT22;74140;44.988;4.976;2023-11-18T07:29:25;12.40;73.50
84053;DHT22;74140;44.988;4.976;2023-11-18T07:31:55;13.30;72.60
84053;DHT22;74140;44.988;4.976;2023-11-18T07:34:20;14.00;68.30
84053;DHT22;74140;44.988;4.976;2023-11-18T07:36:47;14.20;63.00
84053;DHT22;74140;44.988;4.976;2023-11-18T07:39:14;14.10;63.20
84053;DHT22;74140;44.988;4.976;2023-11-18T07:41:50;14.30;65.20
84053;DHT22;74140;44.988;4.976;2023-11-18T07:44:15;14.60;63.50
84053;DHT22;74140;44.988;4.976;2023-11-18T07:46:41;14.80;61.00
84053;DHT22;74140;44.988;4.976;2023-11-18T07:49:08;14.60;62.10
84053;DHT22;74140;44.988;4.976;2023-11-18T07:51:34;15.10;63.10
84053;DHT22;74140;44.988;4.976;2023-11-18T07:54:00;15.80;62.90
84053;DHT22;74140;44.988;4.976;2023-11-18T07:56:26;16.60;60.80
84053;DHT22;74140;44.988;4.976;2023-11-18T07:58:52;17.20;59.90
84053;DHT22;74140;44.988;4.976;2023-11-18T08:01:20;17.60;56.90
84053;DHT22;74140;44.988;4.976;2023-11-18T08:03:46;18.00;56.00
84053;DHT22;74140;44.988;4.976;2023-11-18T08:06:13;18.40;55.70
84053;DHT22;74140;44.988;4.976;2023-11-18T08:08:39;18.50;51.90
84053;DHT22;74140;44.988;4.976;2023-11-18T08:11:05;18.20;52.30
84053;DHT22;74140;44.988;4.976;2023-11-18T08:13:31;17.90;52.50
84053;DHT22;74140;44.988;4.976;2023-11-18T08:15:56;18.10;55.10
84053;DHT22;74140;44.988;4.976;2023-11-18T08:18:25;18.90;53.50
84053;DHT22;74140;44.988;4.976;2023-11-18T08:20:52;19.60;54.30
84053;DHT22;74140;44.988;4.976;2023-11-18T08:23:18;20.60;53.10
84053;DHT22;74140;44.988;4.976;2023-11-18T08:25:44;20.80;47.30
84053;DHT22;74140;44.988;4.976;2023-11-18T08:28:11;20.30;48.30
84053;DHT22;74140;44.988;4.976;2023-11-18T08:30:39;20.70;49.50
84053;DHT22;74140;44.988;4.976;2023-11-18T08:33:05;21.40;49.20
84053;DHT22;74140;44.988;4.976;2023-11-18T08:35:37;21.90;48.60
84053;DHT22;74140;44.988;4.976;2023-11-18T08:38:03;22.60;48.40
84053;DHT22;74140;44.988;4.976;2023-11-18T08:40:30;23.70;45.70
84053;DHT22;74140;44.988;4.976;2023-11-18T08:42:55;24.70;43.40
84053;DHT22;74140;44.988;4.976;2023-11-18T08:45:26;25.00;42.00
84053;DHT22;74140;44.988;4.976;2023-11-18T08:47:59;24.80;42.40
84053;DHT22;74140;44.988;4.976;2023-11-18T08:50:25;24.90;42.50
84053;DHT22;74140;44.988;4.976;2023-11-18T08:52:52;25.60;41.10
84053;DHT22;74140;44.988;4.976;2023-11-18T08:55:23;26.00;39.80
84053;DHT22;74140;44.988;4.976;2023-11-18T08:58:04;26.10;39.00
84053;DHT22;74140;44.988;4.976;2023-11-18T09:00:41;26.30;39.40
84053;DHT22;74140;44.988;4.976;2023-11-18T09:03:14;26.90;38.60
84053;DHT22;74140;44.988;4.976;2023-11-18T09:05:56;26.70;38.20
84053;DHT22;74140;44.988;4.976;2023-11-18T09:08:26;26.20;38.70
84053;DHT22;74140;44.988;4.976;2023-11-18T09:10:53;26.00;38.60
84053;DHT22;74140;44.988;4.976;2023-11-18T09:13:23;26.10;39.90
84053;DHT22;74140;44.988;4.976;2023-11-18T09:15:57;26.30;37.80
84053;DHT22;74140;44.988;4.976;2023-11-18T09:18:23;26.60;37.60
84053;DHT22;74140;44.988;4.976;2023-11-18T09:20:50;26.50;38.20
84053;DHT22;74140;44.988;4.976;2023-11-18T09:23:18;26.30;36.60
84053;DHT22;74140;44.988;4.976;2023-11-18T09:25:46;25.80;37.60
84053;DHT22;74140;44.988;4.976;2023-11-18T09:28:14;25.90;38.90
84053;DHT22;74140;44.988;4.976;2023-11-18T09:30:45;26.90;37.80
84053;DHT22;74140;44.988;4.976;2023-11-18T09:33:16;27.30;37.50
84053;DHT22;74140;44.988;4.976;2023-11-18T09:35:53;27.60;37.70
84053;DHT22;74140;44.988;4.976;2023-11-18T09:38:29;28.30;34.20
84053;DHT22;74140;44.988;4.976;2023-11-18T09:40:59;28.00;33.50
84053;DHT22;74140;44.988;4.976;2023-11-18T09:43:31;27.00;35.50
84053;DHT22;74140;44.988;4.976;2023-11-18T09:46:04;26.90;35.80
84053;DHT22;74140;44.988;4.976;2023-11-18T09:48:51;27.20;36.70
84053;DHT22;74140;44.988;4.976;2023-11-18T09:51:26;27.80;34.20
84053;DHT22;74140;44.988;4.976;2023-11-18T09:53:59;27.70;34.80
84053;DHT22;74140;44.988;4.976;2023-11-18T09:56:43;27.80;33.40
84053;DHT22;74140;44.988;4.976;2023-11-18T09:59:22;27.00;33.40
84053;DHT22;74140;44.988;4.976;2023-11-18T10:01:53;26.00;34.30
84053;DHT22;74140;44.988;4.976;2023-11-18T10:04:23;25.70;34.60
84053;DHT22;74140;44.988;4.976;2023-11-18T10:06:53;25.00;34.50
84053;DHT22;74140;44.988;4.976;2023-11-18T10:09:20;24.20;35.50
84053;DHT22;74140;44.988;4.976;2023-11-18T10:11:54;23.70;36.00
84053;DHT22;74140;44.988;4.976;2023-11-18T10:14:27;23.00;36.40
84053;DHT22;74140;44.988;4.976;2023-11-18T10:16:52;22.20;37.70
84053;DHT22;74140;44.988;4.976;2023-11-18T10:19:19;22.10;39.10
84053;DHT22;74140;44.988;4.976;2023-11-18T10:21:46;21.90;39.70
84053;DHT22;74140;44.988;4.976;2023-11-18T10:24:14;22.50;41.20
84053;DHT22;74140;44.988;4.976;2023-11-18T10:26:42;23.30;40.60
84053;DHT22;74140;44.988;4.976;2023-11-18T10:29:09;24.00;40.50
84053;DHT22;74140;44.988;4.976;2023-11-18T10:31:36;24.70;38.70
84053;DHT22;74140;44.988;4.976;2023-11-18T10:34:03;25.20;38.10
84053;DHT22;74140;44.988;4.976;2023-11-18T10:36:35;26.10;38.30
84053;DHT22;74140;44.988;4.976;2023-11-18T10:39:01;26.40;36.00
84053;DHT22;74140;44.988;4.976;2023-11-18T10:41:30;26.50;35.30
84053;DHT22;74140;44.988;4.976;2023-11-18T10:44:08;26.60;34.20
84053;DHT22;74140;44.988;4.976;2023-11-18T10:46:35;26.40;33.80
84053;DHT22;74140;44.988;4.976;2023-11-18T10:49:01;25.50;33.90
84053;DHT22;74140;44.988;4.976;2023-11-18T10:51:28;24.30;34.70
84053;DHT22;74140;44.988;4.976;2023-11-18T10:53:56;23.30;36.10
84053;DHT22;74140;44.988;4.976;2023-11-18T10:56:27;22.70;37.70
84053;DHT22;74140;44.988;4.976;2023-11-18T10:58:57;22.50;37.60
84053;DHT22;74140;44.988;4.976;2023-11-18T11:01:31;22.60;37.50
84053;DHT22;74140;44.988;4.976;2023-11-18T11:03:57;22.60;38.70
84053;DHT22;74140;44.988;4.976;2023-11-18T11:06:27;23.40;38.80
84053;DHT22;74140;44.988;4.976;2023-11-18T11:08:56;23.70;37.80
84053;DHT22;74140;44.988;4.976;2023-11-18T11:11:25;24.10;37.40
84053;DHT22;74140;44.988;4.976;2023-11-18T11:13:57;24.60;36.40
84053;DHT22;74140;44.988;4.976;2023-11-18T11:16:28;24.70;35.70
84053;DHT22;74140;44.988;4.976;2023-11-18T11:18:55;24.80;35.70
84053;DHT22;74140;44.988;4.976;2023-11-18T11:21:26;24.50;35.40
84053;DHT22;74140;44.988;4.976;2023-11-18T11:24:04;24.40;35.60
84053;DHT22;74140;44.988;4.976;2023-11-18T11:29:32;22.70;35.60
84053;DHT22;74140;44.988;4.976;2023-11-18T11:32:10;22.10;37.40
84053;DHT22;74140;44.988;4.976;2023-11-18T11:34:40;21.80;36.90
84053;DHT22;74140;44.988;4.976;2023-11-18T11:37:14;21.20;37.90
84053;DHT22;74140;44.988;4.976;2023-11-18T11:39:43;20.90;38.20
84053;DHT22;74140;44.988;4.976;2023-11-18T11:42:15;20.20;38.90
84053;DHT22;74140;44.988;4.976;2023-11-18T11:44:44;20.10;40.30
84053;DHT22;74140;44.988;4.976;2023-11-18T11:47:10;20.10;40.60
84053;DHT22;74140;44.988;4.976;2023-11-18T11:50:10;19.40;41.20
84053;DHT22;74140;44.988;4.976;2023-11-18T11:52:42;18.80;42.20
84053;DHT22;74140;44.988;4.976;2023-11-18T11:55:14;18.40;43.00
84053;DHT22;74140;44.988;4.976;2023-11-18T11:57:40;17.90;44.20
84053;DHT22;74140;44.988;4.976;2023-11-18T12:00:11;17.40;44.90
84053;DHT22;74140;44.988;4.976;2023-11-18T12:02:51;17.10;45.60
84053;DHT22;74140;44.988;4.976;2023-11-18T12:05:20;16.80;46.10
84053;DHT22;74140;44.988;4.976;2023-11-18T12:07:52;16.50;47.10
84053;DHT22;74140;44.988;4.976;2023-11-18T12:10:19;16.30;47.40
84053;DHT22;74140;44.988;4.976;2023-11-18T12:12:48;16.30;47.50
84053;DHT22;74140;44.988;4.976;2023-11-18T12:15:17;16.30;47.50
84053;DHT22;74140;44.988;4.976;2023-11-18T12:20:42;17.10;47.30
84053;DHT22;74140;44.988;4.976;2023-11-18T12:23:10;17.20;46.40
84053;DHT22;74140;44.988;4.976;2023-11-18T12:25:49;17.30;46.90
84053;DHT22;74140;44.988;4.976;2023-11-18T12:28:21;17.50;46.60
84053;DHT22;74140;44.988;4.976;2023-11-18T12:30:48;17.80;46.00
84053;DHT22;74140;44.988;4.976;2023-11-18T12:39:40;18.20;45.20
84053;DHT22;74140;44.988;4.976;2023-11-18T12:47:43;18.30;45.30
84053;DHT22;74140;44.988;4.976;2023-11-18T12:50:11;18.40;44.60
84053;DHT22;74140;44.988;4.976;2023-11-18T12:52:52;18.10;45.00
84053;DHT22;74140;44.988;4.976;2023-11-18T12:55:18;18.00;44.50
84053;DHT22;74140;44.988;4.976;2023-11-18T12:57:47;17.90;46.30
84053;DHT22;74140;44.988;4.976;2023-11-18T13:00:15;18.20;46.40
84053;DHT22;74140;44.988;4.976;2023-11-18T13:02:54;18.60;45.40
84053;DHT22;74140;44.988;4.976;2023-11-18T13:05:20;18.60;44.40
84053;DHT22;74140;44.988;4.976;2023-11-18T13:07:46;18.50;44.70
84053;DHT22;74140;44.988;4.976;2023-11-18T13:10:14;18.30;44.30
84053;DHT22;74140;44.988;4.976;2023-11-18T13:12:41;18.40;45.60
84053;DHT22;74140;44.988;4.976;2023-11-18T13:15:09;18.60;44.90
84053;DHT22;74140;44.988;4.976;2023-11-18T13:17:35;18.70;45.10
84053;DHT22;74140;44.988;4.976;2023-11-18T13:20:13;19.00;43.80
84053;DHT22;74140;44.988;4.976;2023-11-18T13:22:41;18.60;43.20
84053;DHT22;74140;44.988;4.976;2023-11-18T13:25:07;18.20;44.80
84053;DHT22;74140;44.988;4.976;2023-11-18T13:27:35;18.00;43.90
84053;DHT22;74140;44.988;4.976;2023-11-18T13:30:01;17.70;44.60
84053;DHT22;74140;44.988;4.976;2023-11-18T13:32:29;17.80;45.90
84053;DHT22;74140;44.988;4.976;2023-11-18T13:34:55;17.70;44.40
84053;DHT22;74140;44.988;4.976;2023-11-18T13:37:21;17.50;44.80
84053;DHT22;74140;44.988;4.976;2023-11-18T13:39:57;17.10;45.50
84053;DHT22;74140;44.988;4.976;2023-11-18T13:42:26;16.80;45.40
84053;DHT22;74140;44.988;4.976;2023-11-18T13:44:53;16.90;46.60
84053;DHT22;74140;44.988;4.976;2023-11-18T13:47:26;17.30;46.50
84053;DHT22;74140;44.988;4.976;2023-11-18T13:49:57;17.40;45.60
84053;DHT22;74140;44.988;4.976;2023-11-18T13:52:24;17.40;45.50
84053;DHT22;74140;44.988;4.976;2023-11-18T13:54:51;17.50;45.60
84053;DHT22;74140;44.988;4.976;2023-11-18T13:57:23;17.70;45.40
84053;DHT22;74140;44.988;4.976;2023-11-18T13:59:52;17.60;44.80
84053;DHT22;74140;44.988;4.976;2023-11-18T14:02:20;17.40;44.40
84053;DHT22;74140;44.988;4.976;2023-11-18T14:04:47;17.10;45.20
84053;DHT22;74140;44.988;4.976;2023-11-18T14:07:17;17.00;45.70
84053;DHT22;74140;44.988;4.976;2023-11-18T14:09:46;17.10;45.90
84053;DHT22;74140;44.988;4.976;2023-11-18T14:12:13;17.00;45.60
84053;DHT22;74140;44.988;4.976;2023-11-18T14:14:39;16.80;46.00
84053;DHT22;74140;44.988;4.976;2023-11-18T14:17:05;16.60;46.40
84053;DHT22;74140;44.988;4.976;2023-11-18T14:19:35;16.70;46.40
84053;DHT22;74140;44.988;4.976;2023-11-18T14:22:02;16.50;46.10
84053;DHT22;74140;44.988;4.976;2023-11-18T14:24:34;16.10;46.10
84053;DHT22;74140;44.988;4.976;2023-11-18T14:27:00;15.90;46.80
84053;DHT22;74140;44.988;4.976;2023-11-18T14:29:26;15.80;47.30
84053;DHT22;74140;44.988;4.976;2023-11-18T14:31:53;15.50;47.60
84053;DHT22;74140;44.988;4.976;2023-11-18T14:34:19;15.30;48.10
84053;DHT22;74140;44.988;4.976;2023-11-18T14:36:45;15.10;48.60
84053;DHT22;74140;44.988;4.976;2023-11-18T14:39:11;15.00;48.90
84053;DHT22;74140;44.988;4.976;2023-11-18T14:41:39;14.90;48.70
84053;DHT22;74140;44.988;4.976;2023-11-18T14:44:04;14.70;49.30
84053;DHT22;74140;44.988;4.976;2023-11-18T14:46:31;14.40;49.70
84053;DHT22;74140;44.988;4.976;2023-11-18T14:48:59;14.30;49.70
84053;DHT22;74140;44.988;4.976;2023-11-18T14:51:25;14.20;49.50
84053;DHT22;74140;44.988;4.976;2023-11-18T14:53:51;14.30;49.30
84053;DHT22;74140;44.988;4.976;2023-11-18T14:56:17;14.40;49.30
84053;DHT22;74140;44.988;4.976;2023-11-18T14:58:43;14.40;49.70
84053;DHT22;74140;44.988;4.976;2023-11-18T15:01:14;14.60;49.60
84053;DHT22;74140;44.988;4.976;2023-11-18T15:03:40;14.50;48.90
84053;DHT22;74140;44.988;4.976;2023-11-18T15:06:06;14.40;49.00
84053;DHT22;74140;44.988;4.976;2023-11-18T15:08:32;14.30;49.30
84053;DHT22;74140;44.988;4.976;2023-11-18T15:10:58;14.30;49.20
84053;DHT22;74140;44.988;4.976;2023-11-18T15:13:24;14.30;49.80
84053;DHT22;74140;44.988;4.976;2023-11-18T15:15:50;14.50;49.30
84053;DHT22;74140;44.988;4.976;2023-11-18T15:18:18;14.60;49.30
84053;DHT22;74140;44.988;4.976;2023-11-18T15:20:45;14.70;48.70
84053;DHT22;74140;44.988;4.976;2023-11-18T15:23:13;14.70;48.70
84053;DHT22;74140;44.988;4.976;2023-11-18T15:25:39;14.70;48.70
84053;DHT22;74140;44.988;4.976;2023-11-18T15:28:05;14.60;48.60
84053;DHT22;74140;44.988;4.976;2023-11-18T15:30:38;14.60;49.60
84053;DHT22;74140;44.988;4.976;2023-11-18T15:33:05;14.50;49.90
84053;DHT22;74140;44.988;4.976;2023-11-18T15:35:36;14.30;50.20
84053;DHT22;74140;44.988;4.976;2023-11-18T15:38:04;14.20;50.60
84053;DHT22;74140;44.988;4.976;2023-11-18T15:40:34;14.20;50.90
84053;DHT22;74140;44.988;4.976;2023-11-18T15:43:02;13.90;51.50
84053;DHT22;74140;44.988;4.976;2023-11-18T15:45:28;13.90;51.70
84053;DHT22;74140;44.988;4.976;2023-11-18T15:47:53;13.80;51.80
84053;DHT22;74140;44.988;4.976;2023-11-18T15:50:19;13.80;52.20
84053;DHT22;74140;44.988;4.976;2023-11-18T15:52:50;13.60;53.00
84053;DHT22;74140;44.988;4.976;2023-11-18T15:55:19;13.50;53.20
84053;DHT22;74140;44.988;4.976;2023-11-18T15:57:47;13.30;53.30
84053;DHT22;74140;44.988;4.976;2023-11-18T16:00:21;13.30;53.50
84053;DHT22;74140;44.988;4.976;2023-11-18T16:02:48;13.20;53.80